Terminal Aerodrome Forecast
Issued by NWS Louisville, KY

Home | Current Version | Previous Version | Text Only | Print | Product List | Glossary On
Versions: 1 2 3 4 5 6 7 8 9 10 11 12 13 14 15 16 17
000
FTUS43 KLMK 291700
TAFBWG
TAF
KBWG 291726Z 2918/3018 26004KT P6SM SCT030
     FM292000 29007KT P6SM VCTS SCT040CB
     FM300300 32003KT P6SM SCT150
     FM300800 33004KT 4SM BR BKN025
     FM301300 02006KT P6SM FEW030=

USA.gov is the U.S. government's official web portal to all federal, state and local government web resources and services.